sensor_id;sensor_type;location;lat;lon;timestamp;pressure;altitude;pressure_sealevel;temperature;humidity
21520;BME280;10921;53.614;9.882;2022-08-24T00:02:03;101671.00;;;21.59;54.08
21520;BME280;10921;53.614;9.882;2022-08-24T00:04:30;101689.09;;;21.73;53.88
21520;BME280;10921;53.614;9.882;2022-08-24T00:06:58;101681.56;;;21.69;53.70
21520;BME280;10921;53.614;9.882;2022-08-24T00:09:25;101650.81;;;21.47;54.06
21520;BME280;10921;53.614;9.882;2022-08-24T00:11:51;101678.56;;;21.64;54.05
21520;BME280;10921;53.614;9.882;2022-08-24T00:14:18;101676.16;;;21.54;54.14
21520;BME280;10921;53.614;9.882;2022-08-24T00:16:45;101676.38;;;21.53;54.23
21520;BME280;10921;53.614;9.882;2022-08-24T00:19:12;101677.13;;;21.47;54.45
21520;BME280;10921;53.614;9.882;2022-08-24T00:21:38;101676.22;;;21.39;54.36
21520;BME280;10921;53.614;9.882;2022-08-24T00:24:05;101676.63;;;21.36;54.39
21520;BME280;10921;53.614;9.882;2022-08-24T00:26:32;101689.25;;;21.29;54.72
21520;BME280;10921;53.614;9.882;2022-08-24T00:29:00;101680.00;;;21.24;55.21
21520;BME280;10921;53.614;9.882;2022-08-24T00:31:32;101678.03;;;21.18;55.03
21520;BME280;10921;53.614;9.882;2022-08-24T00:33:59;101677.94;;;21.11;55.30
21520;BME280;10921;53.614;9.882;2022-08-24T00:36:26;101679.16;;;21.08;55.27
21520;BME280;10921;53.614;9.882;2022-08-24T00:38:53;101666.19;;;21.04;55.95
21520;BME280;10921;53.614;9.882;2022-08-24T00:41:19;101679.09;;;21.02;55.99
21520;BME280;10921;53.614;9.882;2022-08-24T00:43:54;101673.19;;;20.98;55.82
21520;BME280;10921;53.614;9.882;2022-08-24T00:46:27;101681.06;;;20.93;56.08
21520;BME280;10921;53.614;9.882;2022-08-24T00:52:06;101682.28;;;20.91;55.93
21520;BME280;10921;53.614;9.882;2022-08-24T00:54:39;101687.63;;;20.84;56.45
21520;BME280;10921;53.614;9.882;2022-08-24T00:57:14;101674.34;;;20.75;56.46
21520;BME280;10921;53.614;9.882;2022-08-24T00:59:45;101696.72;;;20.77;56.95
21520;BME280;10921;53.614;9.882;2022-08-24T01:02:17;101698.13;;;20.73;56.86
21520;BME280;10921;53.614;9.882;2022-08-24T01:04:52;101694.25;;;20.67;57.46
21520;BME280;10921;53.614;9.882;2022-08-24T01:07:22;101689.59;;;20.61;58.03
21520;BME280;10921;53.614;9.882;2022-08-24T01:09:54;101694.56;;;20.57;57.57
21520;BME280;10921;53.614;9.882;2022-08-24T01:12:22;101682.50;;;20.45;57.88
21520;BME280;10921;53.614;9.882;2022-08-24T01:14:50;101695.88;;;20.47;58.15
21520;BME280;10921;53.614;9.882;2022-08-24T01:17:17;101689.50;;;20.40;58.58
21520;BME280;10921;53.614;9.882;2022-08-24T01:20:06;101687.47;;;20.33;58.43
21520;BME280;10921;53.614;9.882;2022-08-24T01:22:44;101669.31;;;20.19;58.38
21520;BME280;10921;53.614;9.882;2022-08-24T01:25:12;101690.75;;;20.29;59.26
21520;BME280;10921;53.614;9.882;2022-08-24T01:27:39;101696.72;;;20.24;58.94
21520;BME280;10921;53.614;9.882;2022-08-24T01:30:10;101681.94;;;20.12;59.23
21520;BME280;10921;53.614;9.882;2022-08-24T01:32:40;101693.72;;;20.19;59.31
21520;BME280;10921;53.614;9.882;2022-08-24T01:35:07;101697.34;;;20.12;59.74
21520;BME280;10921;53.614;9.882;2022-08-24T01:37:34;101692.41;;;20.15;60.16
21520;BME280;10921;53.614;9.882;2022-08-24T01:40:05;101707.44;;;20.18;60.31
21520;BME280;10921;53.614;9.882;2022-08-24T01:42:32;101699.91;;;20.28;57.73
21520;BME280;10921;53.614;9.882;2022-08-24T01:45:01;101686.34;;;20.13;59.96
21520;BME280;10921;53.614;9.882;2022-08-24T01:47:28;101693.44;;;20.14;60.09
21520;BME280;10921;53.614;9.882;2022-08-24T01:49:54;101698.69;;;20.16;60.27
21520;BME280;10921;53.614;9.882;2022-08-24T01:52:24;101686.34;;;20.13;60.44
21520;BME280;10921;53.614;9.882;2022-08-24T01:54:51;101687.00;;;20.15;61.05
21520;BME280;10921;53.614;9.882;2022-08-24T01:57:19;101692.22;;;20.17;60.81
21520;BME280;10921;53.614;9.882;2022-08-24T01:59:48;101690.16;;;20.19;60.68
21520;BME280;10921;53.614;9.882;2022-08-24T02:02:21;101689.31;;;20.18;61.01
21520;BME280;10921;53.614;9.882;2022-08-24T02:04:49;101692.03;;;20.18;61.03
21520;BME280;10921;53.614;9.882;2022-08-24T02:07:16;101679.97;;;20.06;60.90
21520;BME280;10921;53.614;9.882;2022-08-24T02:09:43;101684.16;;;20.09;61.47
21520;BME280;10921;53.614;9.882;2022-08-24T02:12:10;101695.50;;;20.12;61.32
21520;BME280;10921;53.614;9.882;2022-08-24T02:14:37;101703.63;;;20.12;61.91
21520;BME280;10921;53.614;9.882;2022-08-24T02:17:05;101706.69;;;20.09;61.58
21520;BME280;10921;53.614;9.882;2022-08-24T02:19:33;101709.41;;;20.09;62.23
21520;BME280;10921;53.614;9.882;2022-08-24T02:21:59;101694.03;;;20.01;62.06
21520;BME280;10921;53.614;9.882;2022-08-24T02:24:27;101706.38;;;20.04;62.10
21520;BME280;10921;53.614;9.882;2022-08-24T02:26:54;101708.06;;;20.05;62.31
21520;BME280;10921;53.614;9.882;2022-08-24T02:29:21;101705.53;;;20.03;62.19
21520;BME280;10921;53.614;9.882;2022-08-24T02:31:48;101697.84;;;19.92;62.57
21520;BME280;10921;53.614;9.882;2022-08-24T02:34:15;101717.97;;;19.98;62.42
21520;BME280;10921;53.614;9.882;2022-08-24T02:36:41;101714.78;;;19.94;62.76
21520;BME280;10921;53.614;9.882;2022-08-24T02:39:08;101713.63;;;19.89;63.26
21520;BME280;10921;53.614;9.882;2022-08-24T02:41:35;101715.31;;;19.90;63.24
21520;BME280;10921;53.614;9.882;2022-08-24T02:44:03;101717.75;;;19.85;63.25
21520;BME280;10921;53.614;9.882;2022-08-24T02:46:30;101709.47;;;19.78;63.97
21520;BME280;10921;53.614;9.882;2022-08-24T02:48:57;101713.53;;;19.82;64.25
21520;BME280;10921;53.614;9.882;2022-08-24T02:51:37;101712.41;;;19.91;61.32
21520;BME280;10921;53.614;9.882;2022-08-24T02:54:11;101709.97;;;19.82;63.72
21520;BME280;10921;53.614;9.882;2022-08-24T02:56:38;101709.84;;;19.75;64.14
21520;BME280;10921;53.614;9.882;2022-08-24T02:59:05;101717.97;;;19.75;64.19
21520;BME280;10921;53.614;9.882;2022-08-24T03:01:31;101707.47;;;19.72;64.50
21520;BME280;10921;53.614;9.882;2022-08-24T03:03:58;101709.84;;;19.75;64.67
21520;BME280;10921;53.614;9.882;2022-08-24T03:06:24;101695.34;;;19.68;65.06
21520;BME280;10921;53.614;9.882;2022-08-24T03:08:51;101712.19;;;19.78;64.77
21520;BME280;10921;53.614;9.882;2022-08-24T03:11:23;101713.69;;;19.81;64.96
21520;BME280;10921;53.614;9.882;2022-08-24T03:13:54;101713.88;;;19.79;65.00
21520;BME280;10921;53.614;9.882;2022-08-24T03:16:21;101716.22;;;19.82;65.08
21520;BME280;10921;53.614;9.882;2022-08-24T03:18:48;101709.78;;;19.83;65.03
21520;BME280;10921;53.614;9.882;2022-08-24T03:21:14;101717.75;;;19.85;64.83
21520;BME280;10921;53.614;9.882;2022-08-24T03:23:41;101711.47;;;19.84;65.08
21520;BME280;10921;53.614;9.882;2022-08-24T03:26:09;101714.19;;;19.84;65.50
21520;BME280;10921;53.614;9.882;2022-08-24T03:28:35;101719.44;;;19.86;65.34
21520;BME280;10921;53.614;9.882;2022-08-24T03:31:02;101721.09;;;19.87;65.06
21520;BME280;10921;53.614;9.882;2022-08-24T03:33:29;101721.94;;;19.87;65.34
21520;BME280;10921;53.614;9.882;2022-08-24T03:35:56;101707.97;;;19.76;65.13
21520;BME280;10921;53.614;9.882;2022-08-24T03:38:23;101716.91;;;19.84;65.08
21520;BME280;10921;53.614;9.882;2022-08-24T03:40:49;101704.97;;;19.71;65.51
21520;BME280;10921;53.614;9.882;2022-08-24T03:43:16;101721.81;;;19.81;65.66
21520;BME280;10921;53.614;9.882;2022-08-24T03:46:05;101719.47;;;19.78;66.03
21520;BME280;10921;53.614;9.882;2022-08-24T03:48:33;101716.84;;;19.70;65.97
21520;BME280;10921;53.614;9.882;2022-08-24T03:50:59;101719.91;;;19.66;66.12
21520;BME280;10921;53.614;9.882;2022-08-24T03:53:26;101712.84;;;19.57;66.12
21520;BME280;10921;53.614;9.882;2022-08-24T03:55:53;101698.50;;;19.49;66.28
21520;BME280;10921;53.614;9.882;2022-08-24T03:58:19;101698.34;;;19.42;66.33
21520;BME280;10921;53.614;9.882;2022-08-24T04:00:46;101700.78;;;19.37;66.57
21520;BME280;10921;53.614;9.882;2022-08-24T04:03:12;101725.06;;;19.45;66.90
21520;BME280;10921;53.614;9.882;2022-08-24T04:05:40;101730.38;;;19.39;67.01
21520;BME280;10921;53.614;9.882;2022-08-24T04:08:08;101720.75;;;19.28;67.31
21520;BME280;10921;53.614;9.882;2022-08-24T04:10:35;101728.69;;;19.29;67.87
21520;BME280;10921;53.614;9.882;2022-08-24T04:13:01;101732.13;;;19.23;67.70
21520;BME280;10921;53.614;9.882;2022-08-24T04:15:28;101734.16;;;19.21;68.07
21520;BME280;10921;53.614;9.882;2022-08-24T04:17:57;101731.97;;;19.17;68.11
21520;BME280;10921;53.614;9.882;2022-08-24T04:20:23;101726.25;;;19.12;68.21
21520;BME280;10921;53.614;9.882;2022-08-24T04:22:51;101724.09;;;19.07;68.82
21520;BME280;10921;53.614;9.882;2022-08-24T04:25:19;101726.47;;;19.02;68.44
21520;BME280;10921;53.614;9.882;2022-08-24T04:27:50;101720.56;;;18.98;68.92
21520;BME280;10921;53.614;9.882;2022-08-24T04:30:17;101725.47;;;18.95;69.20
21520;BME280;10921;53.614;9.882;2022-08-24T04:32:43;101717.06;;;18.90;69.56
21520;BME280;10921;53.614;9.882;2022-08-24T04:35:10;101711.66;;;18.90;69.90
21520;BME280;10921;53.614;9.882;2022-08-24T04:37:37;101705.56;;;18.88;70.11
21520;BME280;10921;53.614;9.882;2022-08-24T04:40:04;101712.00;;;18.87;70.31
21520;BME280;10921;53.614;9.882;2022-08-24T04:42:33;101716.91;;;18.83;70.48
21520;BME280;10921;53.614;9.882;2022-08-24T04:45:00;101722.81;;;18.87;70.75
21520;BME280;10921;53.614;9.882;2022-08-24T04:47:26;101721.81;;;18.80;70.89
21520;BME280;10921;53.614;9.882;2022-08-24T04:49:53;101723.16;;;18.84;71.05
21520;BME280;10921;53.614;9.882;2022-08-24T04:52:19;101732.28;;;18.91;71.40
21520;BME280;10921;53.614;9.882;2022-08-24T04:54:46;101736.84;;;18.90;71.33
21520;BME280;10921;53.614;9.882;2022-08-24T04:57:12;101729.72;;;18.89;71.33
21520;BME280;10921;53.614;9.882;2022-08-24T04:59:43;101736.78;;;18.98;71.28
21520;BME280;10921;53.614;9.882;2022-08-24T05:02:10;101727.66;;;19.00;70.96
21520;BME280;10921;53.614;9.882;2022-08-24T05:04:36;101739.81;;;19.04;71.55
21520;BME280;10921;53.614;9.882;2022-08-24T05:07:04;101746.56;;;19.08;71.90
21520;BME280;10921;53.614;9.882;2022-08-24T05:09:30;101747.03;;;19.11;71.56
21520;BME280;10921;53.614;9.882;2022-08-24T05:11:57;101741.00;;;19.09;71.87
21520;BME280;10921;53.614;9.882;2022-08-24T05:14:24;101752.78;;;19.16;72.01
21520;BME280;10921;53.614;9.882;2022-08-24T05:16:54;101760.38;;;19.21;72.14
21520;BME280;10921;53.614;9.882;2022-08-24T05:19:22;101756.50;;;19.23;72.20
21520;BME280;10921;53.614;9.882;2022-08-24T05:21:49;101757.81;;;19.27;72.19
21520;BME280;10921;53.614;9.882;2022-08-24T05:24:16;101761.69;;;19.33;72.24
21520;BME280;10921;53.614;9.882;2022-08-24T05:26:43;101767.59;;;19.37;72.14
21520;BME280;10921;53.614;9.882;2022-08-24T05:29:10;101747.16;;;19.26;72.11
21520;BME280;10921;53.614;9.882;2022-08-24T05:31:37;101772.28;;;19.43;71.90
21520;BME280;10921;53.614;9.882;2022-08-24T05:34:03;101758.06;;;19.41;72.12
21520;BME280;10921;53.614;9.882;2022-08-24T05:36:34;101777.97;;;19.56;72.29
21520;BME280;10921;53.614;9.882;2022-08-24T05:39:06;101782.69;;;19.62;72.32
21520;BME280;10921;53.614;9.882;2022-08-24T05:41:40;101782.00;;;19.68;72.32
21520;BME280;10921;53.614;9.882;2022-08-24T05:44:10;101782.94;;;19.75;71.94
21520;BME280;10921;53.614;9.882;2022-08-24T05:46:37;101774.97;;;19.82;71.85
21520;BME280;10921;53.614;9.882;2022-08-24T05:49:04;101786.06;;;19.95;71.26
21520;BME280;10921;53.614;9.882;2022-08-24T05:51:30;101784.59;;;20.07;71.43
21520;BME280;10921;53.614;9.882;2022-08-24T05:53:57;101784.34;;;20.17;70.91
21520;BME280;10921;53.614;9.882;2022-08-24T05:56:24;101768.47;;;20.14;70.04
21520;BME280;10921;53.614;9.882;2022-08-24T05:58:57;101764.66;;;20.23;70.31
21520;BME280;10921;53.614;9.882;2022-08-24T06:01:25;101789.59;;;20.41;70.12
21520;BME280;10921;53.614;9.882;2022-08-24T06:03:53;101798.69;;;20.48;70.22
21520;BME280;10921;53.614;9.882;2022-08-24T06:06:21;101796.09;;;20.55;70.38
21520;BME280;10921;53.614;9.882;2022-08-24T06:08:51;101805.38;;;20.60;69.74
21520;BME280;10921;53.614;9.882;2022-08-24T06:14:04;101790.50;;;20.71;69.76
21520;BME280;10921;53.614;9.882;2022-08-24T06:16:34;101800.41;;;20.79;69.82
21520;BME280;10921;53.614;9.882;2022-08-24T06:19:02;101794.63;;;20.82;69.46
21520;BME280;10921;53.614;9.882;2022-08-24T06:21:29;101801.84;;;20.89;69.95
21520;BME280;10921;53.614;9.882;2022-08-24T06:23:58;101790.34;;;20.87;69.64
21520;BME280;10921;53.614;9.882;2022-08-24T06:26:25;101788.84;;;20.99;69.37
21520;BME280;10921;53.614;9.882;2022-08-24T06:29:16;101806.16;;;21.13;69.37
21520;BME280;10921;53.614;9.882;2022-08-24T06:31:44;101809.66;;;21.22;69.36
21520;BME280;10921;53.614;9.882;2022-08-24T06:34:13;101807.84;;;21.29;69.03
21520;BME280;10921;53.614;9.882;2022-08-24T06:36:40;101798.50;;;21.31;68.99
21520;BME280;10921;53.614;9.882;2022-08-24T06:39:08;101798.28;;;21.48;69.26
21520;BME280;10921;53.614;9.882;2022-08-24T06:41:39;101801.72;;;21.56;68.76
21520;BME280;10921;53.614;9.882;2022-08-24T06:44:06;101800.75;;;21.79;67.25
21520;BME280;10921;53.614;9.882;2022-08-24T06:46:33;101800.09;;;21.76;68.06
21520;BME280;10921;53.614;9.882;2022-08-24T06:49:01;101811.91;;;21.84;67.69
21520;BME280;10921;53.614;9.882;2022-08-24T06:51:28;101813.25;;;21.94;67.70
21520;BME280;10921;53.614;9.882;2022-08-24T06:53:55;101814.84;;;22.03;67.41
21520;BME280;10921;53.614;9.882;2022-08-24T06:56:21;101806.56;;;22.12;67.76
21520;BME280;10921;53.614;9.882;2022-08-24T06:58:48;101810.91;;;22.27;66.46
21520;BME280;10921;53.614;9.882;2022-08-24T07:01:18;101813.16;;;22.45;66.27
21520;BME280;10921;53.614;9.882;2022-08-24T07:03:45;101814.94;;;22.59;65.79
21520;BME280;10921;53.614;9.882;2022-08-24T07:06:12;101817.56;;;22.74;65.37
21520;BME280;10921;53.614;9.882;2022-08-24T07:08:41;101813.09;;;22.88;65.46
21520;BME280;10921;53.614;9.882;2022-08-24T07:11:08;101816.50;;;22.96;64.69
21520;BME280;10921;53.614;9.882;2022-08-24T07:13:35;101819.50;;;23.08;63.87
21520;BME280;10921;53.614;9.882;2022-08-24T07:16:02;101820.44;;;23.22;64.32
21520;BME280;10921;53.614;9.882;2022-08-24T07:18:30;101831.78;;;23.32;63.82
21520;BME280;10921;53.614;9.882;2022-08-24T07:20:59;101831.59;;;23.40;63.42
21520;BME280;10921;53.614;9.882;2022-08-24T07:23:26;101825.16;;;23.47;63.68
21520;BME280;10921;53.614;9.882;2022-08-24T07:26:10;101827.94;;;23.54;62.82
21520;BME280;10921;53.614;9.882;2022-08-24T07:28:49;101829.91;;;23.67;63.01
21520;BME280;10921;53.614;9.882;2022-08-24T07:31:16;101823.81;;;23.71;62.06
21520;BME280;10921;53.614;9.882;2022-08-24T07:33:43;101815.44;;;23.66;62.40
21520;BME280;10921;53.614;9.882;2022-08-24T07:36:10;101838.13;;;23.87;62.01
21520;BME280;10921;53.614;9.882;2022-08-24T07:38:44;101815.91;;;23.83;61.86
21520;BME280;10921;53.614;9.882;2022-08-24T07:41:11;101845.50;;;24.06;62.04
21520;BME280;10921;53.614;9.882;2022-08-24T07:43:59;101848.66;;;24.16;61.48
21520;BME280;10921;53.614;9.882;2022-08-24T07:46:26;101841.38;;;24.23;60.79
21520;BME280;10921;53.614;9.882;2022-08-24T07:48:52;101842.66;;;24.34;60.12
21520;BME280;10921;53.614;9.882;2022-08-24T07:51:38;101842.66;;;24.47;60.14
21520;BME280;10921;53.614;9.882;2022-08-24T07:54:12;101835.94;;;24.63;59.57
21520;BME280;10921;53.614;9.882;2022-08-24T07:56:40;101847.09;;;24.74;58.76
21520;BME280;10921;53.614;9.882;2022-08-24T07:59:07;101832.16;;;24.83;59.38
21520;BME280;10921;53.614;9.882;2022-08-24T08:01:39;101831.75;;;24.86;59.10
21520;BME280;10921;53.614;9.882;2022-08-24T08:04:05;101848.78;;;25.02;58.53
21520;BME280;10921;53.614;9.882;2022-08-24T08:06:33;101845.22;;;25.01;58.25
21520;BME280;10921;53.614;9.882;2022-08-24T08:08:59;101852.75;;;25.12;57.66
21520;BME280;10921;53.614;9.882;2022-08-24T08:11:27;101852.53;;;25.20;57.36
21520;BME280;10921;53.614;9.882;2022-08-24T08:13:54;101845.78;;;25.23;57.51
21520;BME280;10921;53.614;9.882;2022-08-24T08:16:20;101854.81;;;25.30;58.07
21520;BME280;10921;53.614;9.882;2022-08-24T08:18:47;101855.00;;;25.35;57.29
21520;BME280;10921;53.614;9.882;2022-08-24T08:21:31;101843.81;;;25.43;57.71
21520;BME280;10921;53.614;9.882;2022-08-24T08:24:16;101860.59;;;25.60;57.00
21520;BME280;10921;53.614;9.882;2022-08-24T08:26:48;101864.97;;;25.74;57.50
21520;BME280;10921;53.614;9.882;2022-08-24T08:29:18;101869.59;;;25.80;55.69
21520;BME280;10921;53.614;9.882;2022-08-24T08:31:45;101821.44;;;25.73;54.89
21520;BME280;10921;53.614;9.882;2022-08-24T08:34:12;101860.19;;;26.08;54.50
21520;BME280;10921;53.614;9.882;2022-08-24T08:36:39;101855.47;;;26.21;54.22
21520;BME280;10921;53.614;9.882;2022-08-24T08:39:08;101835.47;;;26.21;53.98
21520;BME280;10921;53.614;9.882;2022-08-24T08:41:43;101862.22;;;26.50;54.74
21520;BME280;10921;53.614;9.882;2022-08-24T08:44:18;101847.88;;;26.55;52.90
21520;BME280;10921;53.614;9.882;2022-08-24T08:52:24;101858.59;;;26.81;51.64
21520;BME280;10921;53.614;9.882;2022-08-24T08:57:54;101852.13;;;27.01;52.59
21520;BME280;10921;53.614;9.882;2022-08-24T09:01:18;101854.34;;;27.10;53.63
21520;BME280;10921;53.614;9.882;2022-08-24T09:12:29;101855.59;;;27.69;51.40
21520;BME280;10921;53.614;9.882;2022-08-24T09:25:44;101853.88;;;28.46;47.74
21520;BME280;10921;53.614;9.882;2022-08-24T09:28:30;101860.34;;;28.75;47.35
21520;BME280;10921;53.614;9.882;2022-08-24T09:34:02;101841.34;;;29.55;45.92
21520;BME280;10921;53.614;9.882;2022-08-24T09:52:50;101834.69;;;31.91;40.71
21520;BME280;10921;53.614;9.882;2022-08-24T10:01:36;101840.56;;;32.90;37.30
21520;BME280;10921;53.614;9.882;2022-08-24T10:04:30;101834.25;;;32.95;36.06
21520;BME280;10921;53.614;9.882;2022-08-24T10:21:23;101830.94;;;33.50;34.70
21520;BME280;10921;53.614;9.882;2022-08-24T10:27:05;101827.38;;;33.54;33.35
21520;BME280;10921;53.614;9.882;2022-08-24T10:30:03;101835.50;;;33.76;34.49
21520;BME280;10921;53.614;9.882;2022-08-24T10:33:05;101825.81;;;33.84;33.60
21520;BME280;10921;53.614;9.882;2022-08-24T10:35:39;101823.63;;;33.86;33.03
21520;BME280;10921;53.614;9.882;2022-08-24T10:46:59;101816.47;;;34.20;34.06
21520;BME280;10921;53.614;9.882;2022-08-24T10:49:43;101814.00;;;34.49;32.48
21520;BME280;10921;53.614;9.882;2022-08-24T11:00:36;101814.78;;;34.85;31.76
21520;BME280;10921;53.614;9.882;2022-08-24T11:03:12;101805.88;;;34.99;32.38
21520;BME280;10921;53.614;9.882;2022-08-24T11:05:48;101799.22;;;35.05;31.53
21520;BME280;10921;53.614;9.882;2022-08-24T11:10:46;101807.84;;;34.98;30.76
21520;BME280;10921;53.614;9.882;2022-08-24T11:13:28;101809.47;;;35.04;30.69
21520;BME280;10921;53.614;9.882;2022-08-24T11:15:57;101808.91;;;35.07;29.52
21520;BME280;10921;53.614;9.882;2022-08-24T11:18:25;101785.13;;;34.91;29.57
21520;BME280;10921;53.614;9.882;2022-08-24T11:20:54;101799.78;;;35.07;29.73
21520;BME280;10921;53.614;9.882;2022-08-24T11:23:25;101811.91;;;35.26;30.64
21520;BME280;10921;53.614;9.882;2022-08-24T11:26:09;101802.38;;;35.52;30.37
21520;BME280;10921;53.614;9.882;2022-08-24T11:28:46;101805.16;;;35.52;29.94
21520;BME280;10921;53.614;9.882;2022-08-24T11:31:22;101810.41;;;35.59;29.15
21520;BME280;10921;53.614;9.882;2022-08-24T11:34:02;101788.47;;;35.57;29.34
21520;BME280;10921;53.614;9.882;2022-08-24T11:36:34;101801.72;;;35.71;30.00
21520;BME280;10921;53.614;9.882;2022-08-24T11:44:48;101799.63;;;35.97;28.89
21520;BME280;10921;53.614;9.882;2022-08-24T11:50:06;101799.97;;;35.90;28.75
21520;BME280;10921;53.614;9.882;2022-08-24T12:01:16;101806.00;;;35.97;29.05
21520;BME280;10921;53.614;9.882;2022-08-24T12:12:11;101790.00;;;36.23;29.14
21520;BME280;10921;53.614;9.882;2022-08-24T12:14:52;101783.66;;;36.12;28.14
21520;BME280;10921;53.614;9.882;2022-08-24T12:17:27;101792.19;;;36.26;28.91
21520;BME280;10921;53.614;9.882;2022-08-24T12:20:04;101795.78;;;36.32;28.94
21520;BME280;10921;53.614;9.882;2022-08-24T12:22:34;101798.53;;;36.32;28.62
21520;BME280;10921;53.614;9.882;2022-08-24T12:25:03;101775.13;;;36.38;28.19
21520;BME280;10921;53.614;9.882;2022-08-24T12:27:51;101797.03;;;36.44;27.73
21520;BME280;10921;53.614;9.882;2022-08-24T12:30:19;101777.03;;;36.42;28.48
21520;BME280;10921;53.614;9.882;2022-08-24T12:32:55;101794.41;;;36.58;28.40
21520;BME280;10921;53.614;9.882;2022-08-24T12:35:27;101785.81;;;36.54;29.23
21520;BME280;10921;53.614;9.882;2022-08-24T12:38:10;101791.50;;;36.73;28.07
21520;BME280;10921;53.614;9.882;2022-08-24T12:40:59;101780.56;;;36.82;29.35
21520;BME280;10921;53.614;9.882;2022-08-24T12:43:48;101787.84;;;36.78;27.96
21520;BME280;10921;53.614;9.882;2022-08-24T12:46:20;101786.94;;;36.82;27.91
21520;BME280;10921;53.614;9.882;2022-08-24T12:48:56;101778.81;;;36.86;27.83
21520;BME280;10921;53.614;9.882;2022-08-24T12:59:57;101730.31;;;36.68;28.10
21520;BME280;10921;53.614;9.882;2022-08-24T13:02:36;101786.47;;;36.99;27.47
21520;BME280;10921;53.614;9.882;2022-08-24T13:05:16;101785.75;;;36.88;27.73
21520;BME280;10921;53.614;9.882;2022-08-24T13:07:47;101783.34;;;36.82;28.22
21520;BME280;10921;53.614;9.882;2022-08-24T13:10:34;101777.00;;;37.00;27.24
21520;BME280;10921;53.614;9.882;2022-08-24T13:17:58;101780.69;;;36.95;27.01
21520;BME280;10921;53.614;9.882;2022-08-24T13:20:31;101779.25;;;36.98;27.21
21520;BME280;10921;53.614;9.882;2022-08-24T13:23:23;101774.63;;;37.12;26.24
21520;BME280;10921;53.614;9.882;2022-08-24T13:25:57;101782.94;;;37.17;25.90
21520;BME280;10921;53.614;9.882;2022-08-24T13:58:21;101764.63;;;37.11;26.56
21520;BME280;10921;53.614;9.882;2022-08-24T14:00:54;101763.63;;;37.02;26.64
21520;BME280;10921;53.614;9.882;2022-08-24T14:06:30;101753.38;;;37.21;26.70
21520;BME280;10921;53.614;9.882;2022-08-24T14:09:12;101749.78;;;37.21;27.06
21520;BME280;10921;53.614;9.882;2022-08-24T14:20:56;101752.50;;;37.45;26.66
21520;BME280;10921;53.614;9.882;2022-08-24T14:34:49;101746.81;;;37.12;26.86
21520;BME280;10921;53.614;9.882;2022-08-24T14:37:22;101748.59;;;37.03;27.09
21520;BME280;10921;53.614;9.882;2022-08-24T14:42:54;101744.81;;;37.13;26.86
21520;BME280;10921;53.614;9.882;2022-08-24T14:45:46;101742.34;;;37.35;26.60
21520;BME280;10921;53.614;9.882;2022-08-24T14:57:11;101740.31;;;37.41;25.18
21520;BME280;10921;53.614;9.882;2022-08-24T15:02:22;101730.03;;;37.41;26.50
21520;BME280;10921;53.614;9.882;2022-08-24T15:08:07;101737.91;;;37.34;25.99
21520;BME280;10921;53.614;9.882;2022-08-24T15:10:50;101725.50;;;37.26;25.75
21520;BME280;10921;53.614;9.882;2022-08-24T15:13:37;101727.84;;;37.14;25.92
21520;BME280;10921;53.614;9.882;2022-08-24T15:16:16;101731.66;;;36.99;25.93
21520;BME280;10921;53.614;9.882;2022-08-24T15:24:35;101735.25;;;37.00;25.62
21520;BME280;10921;53.614;9.882;2022-08-24T15:29:53;101667.94;;;36.55;24.53
21520;BME280;10921;53.614;9.882;2022-08-24T15:32:21;101724.94;;;36.82;25.12
21520;BME280;10921;53.614;9.882;2022-08-24T15:34:55;101732.13;;;36.83;24.04
21520;BME280;10921;53.614;9.882;2022-08-24T15:37:35;101718.66;;;36.95;24.58
21520;BME280;10921;53.614;9.882;2022-08-24T15:40:15;101689.16;;;36.70;24.91
21520;BME280;10921;53.614;9.882;2022-08-24T15:42:41;101727.91;;;37.33;25.01
21520;BME280;10921;53.614;9.882;2022-08-24T15:45:09;101728.94;;;36.94;25.06
21520;BME280;10921;53.614;9.882;2022-08-24T15:47:39;101723.16;;;36.91;24.37
21520;BME280;10921;53.614;9.882;2022-08-24T15:50:34;101725.34;;;36.94;24.71
21520;BME280;10921;53.614;9.882;2022-08-24T15:55:54;101693.13;;;36.64;23.36
21520;BME280;10921;53.614;9.882;2022-08-24T15:58:37;101721.97;;;36.73;24.63
21520;BME280;10921;53.614;9.882;2022-08-24T16:04:03;101719.44;;;36.48;23.60
21520;BME280;10921;53.614;9.882;2022-08-24T16:09:11;101713.50;;;36.31;24.22
21520;BME280;10921;53.614;9.882;2022-08-24T16:11:48;101724.38;;;36.22;25.33
21520;BME280;10921;53.614;9.882;2022-08-24T16:14:41;101718.63;;;36.18;24.83
21520;BME280;10921;53.614;9.882;2022-08-24T16:17:25;101718.16;;;36.06;24.70
21520;BME280;10921;53.614;9.882;2022-08-24T16:19:56;101711.28;;;35.99;24.73
21520;BME280;10921;53.614;9.882;2022-08-24T16:22:30;101712.94;;;36.00;24.52
21520;BME280;10921;53.614;9.882;2022-08-24T16:25:08;101718.25;;;35.96;25.92
21520;BME280;10921;53.614;9.882;2022-08-24T16:30:59;101719.88;;;36.02;25.40
21520;BME280;10921;53.614;9.882;2022-08-24T16:33:36;101693.22;;;35.62;24.85
21520;BME280;10921;53.614;9.882;2022-08-24T16:36:14;101700.47;;;35.58;25.51
21520;BME280;10921;53.614;9.882;2022-08-24T16:38:47;101726.78;;;35.66;25.12
21520;BME280;10921;53.614;9.882;2022-08-24T16:41:17;101724.38;;;35.54;25.75
21520;BME280;10921;53.614;9.882;2022-08-24T16:43:44;101711.63;;;35.48;24.93
21520;BME280;10921;53.614;9.882;2022-08-24T16:46:12;101725.84;;;35.41;25.71
21520;BME280;10921;53.614;9.882;2022-08-24T16:48:43;101727.53;;;35.32;26.52
21520;BME280;10921;53.614;9.882;2022-08-24T16:51:09;101728.97;;;35.19;26.82
21520;BME280;10921;53.614;9.882;2022-08-24T16:53:36;101717.94;;;35.09;26.66
21520;BME280;10921;53.614;9.882;2022-08-24T16:56:03;101725.16;;;35.05;26.43
21520;BME280;10921;53.614;9.882;2022-08-24T16:58:32;101727.16;;;34.95;26.83